LFLL/LYS METAR and TAF weather

Enter ICAO airport designator
Station Type Date Time Source
LFLL METAR 2020/07/15 09:00 UTC NOAA

LFLL 150900Z 36009KT CAVOK 20/12 Q1016 NOSIG


Station Type Date Time Source
LFLL Decoded METAR 2020/07/15 09:00 UTC NOAA

Lyon / Satolas, France (LFLL) 45-44N 005-05E 240M
Jul 15, 2020 - 05:00 AM EDT / 2020.07.15 0900 UTC
Wind: from the N (360 degrees) at 10 MPH (9 KT):0
Visibility: greater than 7 mile(s):0
Temperature: 68 F (20 C)
Dew Point: 53 F (12 C)
Relative Humidity: 59%
Pressure (altimeter): 30.00 in. Hg (1016 hPa)
ob: LFLL 150900Z 36009KT CAVOK 20/12 Q1016 NOSIG
cycle: 9

Station Type Date Time Source
LFLL TAF 2020/07/15 08:27 UTC NOAA

TAF
AMD TAF
AMD LFLL 150818Z 1508/1612 34010KT CAVOK
TEMPO 1509/1517 4000 SHRA SCT020 BKN060TCU PROB30
TEMPO 1509/1517 BKN012 BKN060
BECMG 1521/1524 VRB02KT BKN040
BECMG 1607/1609 35010KT
BECMG 1610/1612 NSC

Example: see airport list